Melbourne Beach, Florida
Current Conditions -  °F | °C
As of 11:53 AM on Friday 31 Oct 2014 (Local Time) from KMLB Reporting Station
Scattered Clouds Scattered Clouds  
Wind Chill: 80°   Ceiling: Unl
Heat Index: 83°   Visibility: 10mi
Dew Point: 68°   Wind: 12mph
Humidity: 67%   Direction: 290°WNW
Pressure: 29.84"   Gusts: NA
Location:  28.07°N, 80.56°W
Report Text: KMLB 311553Z 29010KT 10SM SCT021 27/20 A2984 RMK AO2 SLP105 T02670200
Loading
Personal Weather Stations






























Interactive Weather Map
Tropical Storm Tracking
New forecast layout! Learn more

10-Day Weather Forecast

Advertisements
Track Severe Weather on mobile